sensor_id;sensor_type;location;lat;lon;timestamp;pressure;altitude;pressure_sealevel;temperature;humidity
61119;BME280;51448;51.660;5.824;2023-01-25T00:01:06;103628.50;;;0.79;94.45
61119;BME280;51448;51.660;5.824;2023-01-25T00:03:34;103628.34;;;0.76;94.62
61119;BME280;51448;51.660;5.824;2023-01-25T00:06:02;103635.31;;;0.77;94.79
61119;BME280;51448;51.660;5.824;2023-01-25T00:08:29;103626.75;;;0.78;94.79
61119;BME280;51448;51.660;5.824;2023-01-25T00:11:00;103635.31;;;0.77;94.94
61119;BME280;51448;51.660;5.824;2023-01-25T00:13:28;103631.03;;;0.78;94.64
61119;BME280;51448;51.660;5.824;2023-01-25T00:16:05;103625.13;;;0.80;94.83
61119;BME280;51448;51.660;5.824;2023-01-25T00:18:32;103621.72;;;0.82;95.02
61119;BME280;51448;51.660;5.824;2023-01-25T00:21:11;103613.25;;;0.84;95.05
61119;BME280;51448;51.660;5.824;2023-01-25T00:23:39;103620.09;;;0.84;94.59
61119;BME280;51448;51.660;5.824;2023-01-25T00:26:07;103609.50;;;0.79;94.75
61119;BME280;51448;51.660;5.824;2023-01-25T00:28:36;103612.72;;;0.75;95.06
61119;BME280;51448;51.660;5.824;2023-01-25T00:31:05;103613.34;;;0.71;94.91
61119;BME280;51448;51.660;5.824;2023-01-25T00:33:55;103614.59;;;0.63;94.84
61119;BME280;51448;51.660;5.824;2023-01-25T00:36:31;103615.31;;;0.60;95.18
61119;BME280;51448;51.660;5.824;2023-01-25T00:39:05;103613.72;;;0.62;95.29
61119;BME280;51448;51.660;5.824;2023-01-25T00:41:38;103613.72;;;0.62;95.25
61119;BME280;51448;51.660;5.824;2023-01-25T00:44:06;103599.06;;;0.63;95.12
61119;BME280;51448;51.660;5.824;2023-01-25T00:46:34;103601.75;;;0.64;94.93
61119;BME280;51448;51.660;5.824;2023-01-25T00:49:06;103601.56;;;0.61;94.99
61119;BME280;51448;51.660;5.824;2023-01-25T00:51:45;103594.59;;;0.60;94.95
61119;BME280;51448;51.660;5.824;2023-01-25T00:54:12;103594.75;;;0.63;95.54
61119;BME280;51448;51.660;5.824;2023-01-25T00:56:40;103592.28;;;0.65;95.21
61119;BME280;51448;51.660;5.824;2023-01-25T00:59:09;103600.94;;;0.65;95.14
61119;BME280;51448;51.660;5.824;2023-01-25T01:01:40;103604.25;;;0.63;95.02
61119;BME280;51448;51.660;5.824;2023-01-25T01:04:08;103592.13;;;0.62;95.02
61119;BME280;51448;51.660;5.824;2023-01-25T01:06:40;103590.31;;;0.60;95.12
61119;BME280;51448;51.660;5.824;2023-01-25T01:09:12;103594.59;;;0.60;95.29
61119;BME280;51448;51.660;5.824;2023-01-25T01:11:42;103587.56;;;0.57;95.22
61119;BME280;51448;51.660;5.824;2023-01-25T01:14:10;103587.47;;;0.56;94.92
61119;BME280;51448;51.660;5.824;2023-01-25T01:16:39;103595.88;;;0.52;94.84
61119;BME280;51448;51.660;5.824;2023-01-25T01:19:08;103598.34;;;0.50;95.48
61119;BME280;51448;51.660;5.824;2023-01-25T01:21:37;103593.38;;;0.53;95.62
61119;BME280;51448;51.660;5.824;2023-01-25T01:24:05;103590.22;;;0.59;95.50
61119;BME280;51448;51.660;5.824;2023-01-25T01:26:32;103590.06;;;0.56;94.29
61119;BME280;51448;51.660;5.824;2023-01-25T01:29:01;103595.66;;;0.49;94.64
61119;BME280;51448;51.660;5.824;2023-01-25T01:31:28;103593.72;;;0.45;94.69
61119;BME280;51448;51.660;5.824;2023-01-25T01:34:11;103596.13;;;0.42;95.03
61119;BME280;51448;51.660;5.824;2023-01-25T01:36:41;103599.63;;;0.42;95.14
61119;BME280;51448;51.660;5.824;2023-01-25T01:39:09;103590.34;;;0.46;95.24
61119;BME280;51448;51.660;5.824;2023-01-25T01:41:37;103588.72;;;0.48;95.27
61119;BME280;51448;51.660;5.824;2023-01-25T01:44:15;103590.50;;;0.49;95.14
61119;BME280;51448;51.660;5.824;2023-01-25T01:46:54;103597.38;;;0.48;95.39
61119;BME280;51448;51.660;5.824;2023-01-25T01:49:29;103592.09;;;0.47;95.51
61119;BME280;51448;51.660;5.824;2023-01-25T01:52:14;103590.50;;;0.49;95.16
61119;BME280;51448;51.660;5.824;2023-01-25T01:54:57;103595.13;;;0.54;95.72
61119;BME280;51448;51.660;5.824;2023-01-25T01:57:39;103589.16;;;0.55;95.17
61119;BME280;51448;51.660;5.824;2023-01-25T02:00:21;103590.22;;;0.59;95.35
61119;BME280;51448;51.660;5.824;2023-01-25T02:02:53;103591.13;;;0.59;95.63
61119;BME280;51448;51.660;5.824;2023-01-25T02:08:08;103593.88;;;0.63;95.29
61119;BME280;51448;51.660;5.824;2023-01-25T02:10:41;103583.44;;;0.61;94.66
61119;BME280;51448;51.660;5.824;2023-01-25T02:13:10;103585.84;;;0.58;95.08
61119;BME280;51448;51.660;5.824;2023-01-25T02:15:46;103579.84;;;0.59;94.77
61119;BME280;51448;51.660;5.824;2023-01-25T02:18:17;103584.06;;;0.57;94.94
61119;BME280;51448;51.660;5.824;2023-01-25T02:20:48;103579.59;;;0.54;94.96
61119;BME280;51448;51.660;5.824;2023-01-25T02:26:21;103578.88;;;0.57;95.56
61119;BME280;51448;51.660;5.824;2023-01-25T02:29:05;103578.19;;;0.59;94.88
61119;BME280;51448;51.660;5.824;2023-01-25T02:31:34;103571.19;;;0.58;95.37
61119;BME280;51448;51.660;5.824;2023-01-25T02:34:02;103568.63;;;0.58;95.46
61119;BME280;51448;51.660;5.824;2023-01-25T02:36:32;103559.97;;;0.58;95.41
61119;BME280;51448;51.660;5.824;2023-01-25T02:39:10;103557.19;;;0.55;95.43
61119;BME280;51448;51.660;5.824;2023-01-25T02:41:45;103551.13;;;0.54;95.38
61119;BME280;51448;51.660;5.824;2023-01-25T02:44:16;103554.44;;;0.52;94.69
61119;BME280;51448;51.660;5.824;2023-01-25T02:46:47;103554.44;;;0.52;95.01
61119;BME280;51448;51.660;5.824;2023-01-25T02:49:15;103554.44;;;0.52;95.13
61119;BME280;51448;51.660;5.824;2023-01-25T02:51:46;103556.19;;;0.53;94.61
61119;BME280;51448;51.660;5.824;2023-01-25T02:54:18;103550.84;;;0.50;95.04
61119;BME280;51448;51.660;5.824;2023-01-25T02:56:47;103547.28;;;0.48;95.23
61119;BME280;51448;51.660;5.824;2023-01-25T02:59:15;103550.66;;;0.47;95.19
61119;BME280;51448;51.660;5.824;2023-01-25T03:01:47;103547.28;;;0.48;95.36
61119;BME280;51448;51.660;5.824;2023-01-25T03:04:15;103543.09;;;0.50;95.13
61119;BME280;51448;51.660;5.824;2023-01-25T03:06:43;103553.59;;;0.53;95.48
61119;BME280;51448;51.660;5.824;2023-01-25T03:09:11;103545.16;;;0.55;95.77
61119;BME280;51448;51.660;5.824;2023-01-25T03:11:43;103545.31;;;0.58;95.48
61119;BME280;51448;51.660;5.824;2023-01-25T03:14:11;103544.56;;;0.61;95.04
61119;BME280;51448;51.660;5.824;2023-01-25T03:16:38;103536.66;;;0.58;94.98
61119;BME280;51448;51.660;5.824;2023-01-25T03:19:06;103539.78;;;0.52;94.87
61119;BME280;51448;51.660;5.824;2023-01-25T03:21:34;103536.22;;;0.50;95.09
61119;BME280;51448;51.660;5.824;2023-01-25T03:24:01;103539.78;;;0.52;95.20
61119;BME280;51448;51.660;5.824;2023-01-25T03:26:36;103536.22;;;0.50;94.94
61119;BME280;51448;51.660;5.824;2023-01-25T03:29:31;103532.72;;;0.50;95.13
61119;BME280;51448;51.660;5.824;2023-01-25T03:32:00;103529.41;;;0.52;95.27
61119;BME280;51448;51.660;5.824;2023-01-25T03:34:28;103524.31;;;0.54;95.11
61119;BME280;51448;51.660;5.824;2023-01-25T03:36:57;103511.38;;;0.54;94.98
61119;BME280;51448;51.660;5.824;2023-01-25T03:39:26;103515.75;;;0.55;95.07
61119;BME280;51448;51.660;5.824;2023-01-25T03:41:54;103513.88;;;0.52;94.90
61119;BME280;51448;51.660;5.824;2023-01-25T03:44:22;103506.09;;;0.52;95.17
61119;BME280;51448;51.660;5.824;2023-01-25T03:46:49;103511.19;;;0.51;94.81
61119;BME280;51448;51.660;5.824;2023-01-25T03:49:17;103505.84;;;0.48;94.89
61119;BME280;51448;51.660;5.824;2023-01-25T03:51:45;103508.19;;;0.43;95.19
61119;BME280;51448;51.660;5.824;2023-01-25T03:54:13;103513.38;;;0.43;95.05
61119;BME280;51448;51.660;5.824;2023-01-25T03:56:40;103521.78;;;0.39;94.90
61119;BME280;51448;51.660;5.824;2023-01-25T03:59:14;103514.78;;;0.38;94.97
61119;BME280;51448;51.660;5.824;2023-01-25T04:01:43;103519.09;;;0.37;95.07
61119;BME280;51448;51.660;5.824;2023-01-25T04:04:10;103515.69;;;0.38;95.23
61119;BME280;51448;51.660;5.824;2023-01-25T04:06:40;103511.31;;;0.37;94.96
61119;BME280;51448;51.660;5.824;2023-01-25T04:09:08;103511.31;;;0.37;95.55
61119;BME280;51448;51.660;5.824;2023-01-25T04:11:40;103498.91;;;0.32;95.30
61119;BME280;51448;51.660;5.824;2023-01-25T04:14:09;103491.06;;;0.30;95.74
61119;BME280;51448;51.660;5.824;2023-01-25T04:16:44;103492.03;;;0.32;95.40
61119;BME280;51448;51.660;5.824;2023-01-25T04:19:30;103497.31;;;0.34;95.58
61119;BME280;51448;51.660;5.824;2023-01-25T04:22:00;103492.22;;;0.35;95.45
61119;BME280;51448;51.660;5.824;2023-01-25T04:24:33;103489.63;;;0.35;95.15
61119;BME280;51448;51.660;5.824;2023-01-25T04:27:02;103498.19;;;0.34;95.09
61119;BME280;51448;51.660;5.824;2023-01-25T04:29:33;103498.03;;;0.31;95.35
61119;BME280;51448;51.660;5.824;2023-01-25T04:32:08;103491.97;;;0.31;95.71
61119;BME280;51448;51.660;5.824;2023-01-25T04:34:36;103487.81;;;0.34;95.68
61119;BME280;51448;51.660;5.824;2023-01-25T04:37:04;103483.63;;;0.36;95.72
61119;BME280;51448;51.660;5.824;2023-01-25T04:39:39;103481.03;;;0.36;95.48
61119;BME280;51448;51.660;5.824;2023-01-25T04:42:07;103473.22;;;0.35;95.28
61119;BME280;51448;51.660;5.824;2023-01-25T04:44:35;103481.88;;;0.35;95.42
61119;BME280;51448;51.660;5.824;2023-01-25T04:47:02;103478.44;;;0.36;95.28
61119;BME280;51448;51.660;5.824;2023-01-25T04:49:30;103473.28;;;0.36;95.81
61119;BME280;51448;51.660;5.824;2023-01-25T04:51:57;103477.66;;;0.37;95.59
61119;BME280;51448;51.660;5.824;2023-01-25T04:54:25;103470.78;;;0.38;95.22
61119;BME280;51448;51.660;5.824;2023-01-25T04:56:53;103464.72;;;0.37;95.46
61119;BME280;51448;51.660;5.824;2023-01-25T04:59:20;103470.88;;;0.39;96.07
61119;BME280;51448;51.660;5.824;2023-01-25T05:01:48;103469.25;;;0.42;96.19
61119;BME280;51448;51.660;5.824;2023-01-25T05:04:15;103463.19;;;0.41;95.98
61119;BME280;51448;51.660;5.824;2023-01-25T05:06:45;103463.00;;;0.38;95.19
61119;BME280;51448;51.660;5.824;2023-01-25T05:09:13;103458.56;;;0.35;95.37
61119;BME280;51448;51.660;5.824;2023-01-25T05:11:41;103464.47;;;0.33;95.10
61119;BME280;51448;51.660;5.824;2023-01-25T05:14:19;103454.13;;;0.33;95.20
61119;BME280;51448;51.660;5.824;2023-01-25T05:16:47;103462.75;;;0.33;95.80
61119;BME280;51448;51.660;5.824;2023-01-25T05:19:15;103467.84;;;0.32;95.27
61119;BME280;51448;51.660;5.824;2023-01-25T05:21:51;103462.31;;;0.26;95.25
61119;BME280;51448;51.660;5.824;2023-01-25T05:24:29;103467.34;;;0.23;95.48
61119;BME280;51448;51.660;5.824;2023-01-25T05:27:02;103464.56;;;0.19;95.56
61119;BME280;51448;51.660;5.824;2023-01-25T05:29:53;103460.91;;;0.16;95.02
61119;BME280;51448;51.660;5.824;2023-01-25T05:32:36;103457.53;;;0.17;95.40
61119;BME280;51448;51.660;5.824;2023-01-25T05:35:05;103457.53;;;0.17;95.75
61119;BME280;51448;51.660;5.824;2023-01-25T05:37:34;103459.38;;;0.19;95.56
61119;BME280;51448;51.660;5.824;2023-01-25T05:40:06;103456.81;;;0.19;95.13
61119;BME280;51448;51.660;5.824;2023-01-25T05:42:37;103458.50;;;0.19;95.27
61119;BME280;51448;51.660;5.824;2023-01-25T05:45:11;103454.13;;;0.18;95.00
61119;BME280;51448;51.660;5.824;2023-01-25T05:47:39;103457.63;;;0.18;95.38
61119;BME280;51448;51.660;5.824;2023-01-25T05:50:07;103447.31;;;0.20;95.20
61119;BME280;51448;51.660;5.824;2023-01-25T05:52:54;103452.50;;;0.20;95.22
61119;BME280;51448;51.660;5.824;2023-01-25T05:55:22;103453.44;;;0.21;95.36
61119;BME280;51448;51.660;5.824;2023-01-25T05:57:54;103455.19;;;0.22;95.15
61119;BME280;51448;51.660;5.824;2023-01-25T06:00:23;103456.00;;;0.21;95.48
61119;BME280;51448;51.660;5.824;2023-01-25T06:02:50;103451.53;;;0.18;94.89
61119;BME280;51448;51.660;5.824;2023-01-25T06:05:23;103462.78;;;0.18;95.66
61119;BME280;51448;51.660;5.824;2023-01-25T06:07:51;103452.34;;;0.17;95.02
61119;BME280;51448;51.660;5.824;2023-01-25T06:10:21;103456.69;;;0.18;95.56
61119;BME280;51448;51.660;5.824;2023-01-25T06:12:50;103454.13;;;0.18;95.65
61119;BME280;51448;51.660;5.824;2023-01-25T06:15:23;103457.69;;;0.20;95.24
61119;BME280;51448;51.660;5.824;2023-01-25T06:17:54;103454.31;;;0.21;94.99
61119;BME280;51448;51.660;5.824;2023-01-25T06:20:39;103455.03;;;0.18;95.29
61119;BME280;51448;51.660;5.824;2023-01-25T06:23:07;103455.72;;;0.16;94.87
61119;BME280;51448;51.660;5.824;2023-01-25T06:25:34;103454.69;;;0.12;94.86
61119;BME280;51448;51.660;5.824;2023-01-25T06:28:02;103451.13;;;0.10;94.88
61119;BME280;51448;51.660;5.824;2023-01-25T06:30:29;103445.94;;;0.10;95.10
61119;BME280;51448;51.660;5.824;2023-01-25T06:32:57;103447.72;;;0.11;95.03
61119;BME280;51448;51.660;5.824;2023-01-25T06:35:25;103447.63;;;0.10;95.02
61119;BME280;51448;51.660;5.824;2023-01-25T06:37:55;103435.50;;;0.09;94.65
61119;BME280;51448;51.660;5.824;2023-01-25T06:40:23;103435.31;;;0.06;94.96
61119;BME280;51448;51.660;5.824;2023-01-25T06:42:51;103435.31;;;0.06;95.59
61119;BME280;51448;51.660;5.824;2023-01-25T06:45:19;103437.00;;;0.05;95.37
61119;BME280;51448;51.660;5.824;2023-01-25T06:47:49;103448.25;;;0.06;95.20
61119;BME280;51448;51.660;5.824;2023-01-25T06:50:18;103445.31;;;-0.01;94.99
61119;BME280;51448;51.660;5.824;2023-01-25T06:52:51;103450.41;;;-0.02;94.74
61119;BME280;51448;51.660;5.824;2023-01-25T06:55:19;103449.34;;;-0.06;94.83
61119;BME280;51448;51.660;5.824;2023-01-25T06:57:48;103452.72;;;-0.07;95.11
61119;BME280;51448;51.660;5.824;2023-01-25T07:00:16;103440.69;;;-0.06;95.31
61119;BME280;51448;51.660;5.824;2023-01-25T07:02:44;103447.53;;;-0.07;95.36
61119;BME280;51448;51.660;5.824;2023-01-25T07:05:11;103451.09;;;-0.05;95.10
61119;BME280;51448;51.660;5.824;2023-01-25T07:07:39;103451.31;;;-0.02;95.14
61119;BME280;51448;51.660;5.824;2023-01-25T07:10:10;103438.47;;;0.00;95.38
61119;BME280;51448;51.660;5.824;2023-01-25T07:12:38;103442.91;;;0.03;95.56
61119;BME280;51448;51.660;5.824;2023-01-25T07:15:05;103443.88;;;0.05;95.46
61119;BME280;51448;51.660;5.824;2023-01-25T07:17:34;103444.78;;;0.05;95.47
61119;BME280;51448;51.660;5.824;2023-01-25T07:20:02;103443.78;;;0.03;95.12
61119;BME280;51448;51.660;5.824;2023-01-25T07:22:30;103442.09;;;0.04;95.32
61119;BME280;51448;51.660;5.824;2023-01-25T07:24:57;103446.47;;;0.05;95.65
61119;BME280;51448;51.660;5.824;2023-01-25T07:27:25;103432.56;;;0.03;95.29
61119;BME280;51448;51.660;5.824;2023-01-25T07:29:53;103439.50;;;0.04;95.03
61119;BME280;51448;51.660;5.824;2023-01-25T07:32:20;103432.56;;;0.03;95.20
61119;BME280;51448;51.660;5.824;2023-01-25T07:34:48;103431.47;;;-0.01;95.21
61119;BME280;51448;51.660;5.824;2023-01-25T07:37:16;103422.75;;;-0.03;95.30
61119;BME280;51448;51.660;5.824;2023-01-25T07:39:45;103420.97;;;-0.04;95.61
61119;BME280;51448;51.660;5.824;2023-01-25T07:42:16;103418.38;;;-0.04;95.41
61119;BME280;51448;51.660;5.824;2023-01-25T07:44:52;103419.28;;;-0.04;95.60
61119;BME280;51448;51.660;5.824;2023-01-25T07:47:19;103411.50;;;-0.04;95.26
61119;BME280;51448;51.660;5.824;2023-01-25T07:49:47;103422.84;;;-0.02;95.54
61119;BME280;51448;51.660;5.824;2023-01-25T07:52:14;103427.13;;;-0.02;95.56
61119;BME280;51448;51.660;5.824;2023-01-25T07:54:42;103421.13;;;-0.01;95.22
61119;BME280;51448;51.660;5.824;2023-01-25T07:57:10;103423.56;;;-0.04;95.27
61119;BME280;51448;51.660;5.824;2023-01-25T07:59:37;103417.41;;;-0.06;95.51
61119;BME280;51448;51.660;5.824;2023-01-25T08:02:06;103418.28;;;-0.06;95.49
61119;BME280;51448;51.660;5.824;2023-01-25T08:04:36;103429.53;;;-0.05;95.50
61119;BME280;51448;51.660;5.824;2023-01-25T08:07:04;103426.16;;;-0.04;95.92
61119;BME280;51448;51.660;5.824;2023-01-25T08:09:32;103427.03;;;-0.04;95.51
61119;BME280;51448;51.660;5.824;2023-01-25T08:11:59;103414.19;;;-0.02;95.91
61119;BME280;51448;51.660;5.824;2023-01-25T08:14:27;103411.50;;;-0.04;95.32
61119;BME280;51448;51.660;5.824;2023-01-25T08:16:54;103414.81;;;-0.06;95.82
61119;BME280;51448;51.660;5.824;2023-01-25T08:19:22;103415.72;;;-0.06;95.49
61119;BME280;51448;51.660;5.824;2023-01-25T08:21:51;103414.19;;;-0.02;96.06
61119;BME280;51448;51.660;5.824;2023-01-25T08:24:18;103416.84;;;-0.01;95.83
61119;BME280;51448;51.660;5.824;2023-01-25T08:26:47;103416.06;;;0.01;95.82
61119;BME280;51448;51.660;5.824;2023-01-25T08:29:14;103412.59;;;0.00;95.72
61119;BME280;51448;51.660;5.824;2023-01-25T08:31:42;103411.75;;;0.01;95.94
61119;BME280;51448;51.660;5.824;2023-01-25T08:34:13;103407.56;;;0.03;96.22
61119;BME280;51448;51.660;5.824;2023-01-25T08:36:41;103408.44;;;0.04;95.80
61119;BME280;51448;51.660;5.824;2023-01-25T08:39:09;103400.69;;;0.04;95.84
61119;BME280;51448;51.660;5.824;2023-01-25T08:41:38;103408.44;;;0.04;95.42
61119;BME280;51448;51.660;5.824;2023-01-25T08:44:06;103400.78;;;0.05;95.55
61119;BME280;51448;51.660;5.824;2023-01-25T08:46:33;103404.25;;;0.06;95.83
61119;BME280;51448;51.660;5.824;2023-01-25T08:49:02;103393.91;;;0.06;95.77
61119;BME280;51448;51.660;5.824;2023-01-25T08:51:31;103400.97;;;0.08;95.69
61119;BME280;51448;51.660;5.824;2023-01-25T08:54:04;103406.94;;;0.07;95.68
61119;BME280;51448;51.660;5.824;2023-01-25T08:56:36;103395.50;;;0.04;95.48
61119;BME280;51448;51.660;5.824;2023-01-25T08:59:09;103395.59;;;0.05;95.62
61119;BME280;51448;51.660;5.824;2023-01-25T09:01:38;103390.44;;;0.05;95.81
61119;BME280;51448;51.660;5.824;2023-01-25T09:04:05;103394.00;;;0.07;96.10
61119;BME280;51448;51.660;5.824;2023-01-25T09:06:33;103379.53;;;0.11;96.08
61119;BME280;51448;51.660;5.824;2023-01-25T09:09:01;103377.94;;;0.13;95.71
61119;BME280;51448;51.660;5.824;2023-01-25T09:11:32;103374.50;;;0.14;95.89
61119;BME280;51448;51.660;5.824;2023-01-25T09:14:03;103377.03;;;0.12;95.38
61119;BME280;51448;51.660;5.824;2023-01-25T09:16:31;103376.13;;;0.12;95.56
61119;BME280;51448;51.660;5.824;2023-01-25T09:19:00;103378.81;;;0.13;95.99
61119;BME280;51448;51.660;5.824;2023-01-25T09:21:30;103378.03;;;0.14;95.60
61119;BME280;51448;51.660;5.824;2023-01-25T09:24:00;103376.31;;;0.15;95.99
61119;BME280;51448;51.660;5.824;2023-01-25T09:26:36;103374.69;;;0.17;95.46
61119;BME280;51448;51.660;5.824;2023-01-25T09:29:06;103376.31;;;0.15;95.74
61119;BME280;51448;51.660;5.824;2023-01-25T09:31:36;103378.91;;;0.15;95.44
61119;BME280;51448;51.660;5.824;2023-01-25T09:34:21;103374.47;;;0.12;95.05
61119;BME280;51448;51.660;5.824;2023-01-25T09:36:49;103384.88;;;0.14;95.27
61119;BME280;51448;51.660;5.824;2023-01-25T09:39:16;103386.66;;;0.15;95.66
61119;BME280;51448;51.660;5.824;2023-01-25T09:50:52;103364.75;;;0.08;95.42
61119;BME280;51448;51.660;5.824;2023-01-25T09:53:35;103371.88;;;0.12;95.73
61119;BME280;51448;51.660;5.824;2023-01-25T09:56:22;103370.41;;;0.17;96.03
61119;BME280;51448;51.660;5.824;2023-01-25T09:58:58;103373.81;;;0.16;95.28
61119;BME280;51448;51.660;5.824;2023-01-25T10:01:41;103373.72;;;0.15;95.21
61119;BME280;51448;51.660;5.824;2023-01-25T10:04:20;103374.50;;;0.14;95.36
61119;BME280;51448;51.660;5.824;2023-01-25T10:06:53;103367.56;;;0.13;95.40
61119;BME280;51448;51.660;5.824;2023-01-25T10:09:41;103374.50;;;0.14;95.54
61119;BME280;51448;51.660;5.824;2023-01-25T10:12:22;103366.75;;;0.14;95.44
61119;BME280;51448;51.660;5.824;2023-01-25T10:14:53;103364.16;;;0.14;95.26
61119;BME280;51448;51.660;5.824;2023-01-25T10:17:36;103361.66;;;0.15;95.09
61119;BME280;51448;51.660;5.824;2023-01-25T10:20:30;103352.19;;;0.16;95.23
61119;BME280;51448;51.660;5.824;2023-01-25T10:26:29;103350.78;;;0.21;95.01
61119;BME280;51448;51.660;5.824;2023-01-25T10:29:11;103350.91;;;0.24;95.39
61119;BME280;51448;51.660;5.824;2023-01-25T10:32:24;103354.56;;;0.28;95.53
61119;BME280;51448;51.660;5.824;2023-01-25T10:35:15;103341.81;;;0.31;95.46
61119;BME280;51448;51.660;5.824;2023-01-25T10:38:05;103340.25;;;0.34;95.53
61119;BME280;51448;51.660;5.824;2023-01-25T10:40:43;103328.38;;;0.38;95.27
61119;BME280;51448;51.660;5.824;2023-01-25T10:43:19;103325.00;;;0.39;95.13
61119;BME280;51448;51.660;5.824;2023-01-25T10:45:48;103314.63;;;0.39;94.98
61119;BME280;51448;51.660;5.824;2023-01-25T10:51:02;103313.81;;;0.40;95.17
61119;BME280;51448;51.660;5.824;2023-01-25T10:53:35;103296.75;;;0.44;94.92
61119;BME280;51448;51.660;5.824;2023-01-25T10:56:23;103294.25;;;0.45;94.90
61119;BME280;51448;51.660;5.824;2023-01-25T10:59:26;103283.81;;;0.44;94.74
61119;BME280;51448;51.660;5.824;2023-01-25T11:01:53;103272.47;;;0.42;94.75
61119;BME280;51448;51.660;5.824;2023-01-25T11:04:33;103273.53;;;0.45;95.44
61119;BME280;51448;51.660;5.824;2023-01-25T11:07:03;103260.50;;;0.44;95.05
61119;BME280;51448;51.660;5.824;2023-01-25T11:09:35;103269.34;;;0.47;95.30
61119;BME280;51448;51.660;5.824;2023-01-25T11:12:17;103263.41;;;0.50;95.21
61119;BME280;51448;51.660;5.824;2023-01-25T11:14:48;103250.59;;;0.53;95.15
61119;BME280;51448;51.660;5.824;2023-01-25T11:17:28;103248.19;;;0.56;95.21
61119;BME280;51448;51.660;5.824;2023-01-25T11:20:24;103249.00;;;0.55;95.07
61119;BME280;51448;51.660;5.824;2023-01-25T11:22:54;103250.59;;;0.53;94.90
61119;BME280;51448;51.660;5.824;2023-01-25T11:25:25;103247.22;;;0.54;94.86
61119;BME280;51448;51.660;5.824;2023-01-25T11:28:28;103227.16;;;0.50;94.51
61119;BME280;51448;51.660;5.824;2023-01-25T11:30:56;103213.81;;;0.42;94.37
61119;BME280;51448;51.660;5.824;2023-01-25T11:33:25;103216.50;;;0.44;94.84
61119;BME280;51448;51.660;5.824;2023-01-25T11:38:37;103199.66;;;0.52;95.32
61119;BME280;51448;51.660;5.824;2023-01-25T11:47:35;103190.72;;;0.63;94.96
61119;BME280;51448;51.660;5.824;2023-01-25T11:50:33;103175.16;;;0.63;95.25
61119;BME280;51448;51.660;5.824;2023-01-25T11:53:22;103167.47;;;0.65;94.88
61119;BME280;51448;51.660;5.824;2023-01-25T12:01:57;103172.34;;;0.58;94.81
61119;BME280;51448;51.660;5.824;2023-01-25T12:14:19;103117.09;;;0.58;94.70
61119;BME280;51448;51.660;5.824;2023-01-25T12:20:30;103109.41;;;0.59;94.67
61119;BME280;51448;51.660;5.824;2023-01-25T12:26:28;103093.63;;;0.55;94.08
61119;BME280;51448;51.660;5.824;2023-01-25T12:29:30;103089.19;;;0.52;94.40
61119;BME280;51448;51.660;5.824;2023-01-25T12:32:10;103081.19;;;0.48;94.18
61119;BME280;51448;51.660;5.824;2023-01-25T12:34:50;103080.16;;;0.44;94.42
61119;BME280;51448;51.660;5.824;2023-01-25T12:37:35;103071.41;;;0.42;94.75
61119;BME280;51448;51.660;5.824;2023-01-25T12:40:21;103061.13;;;0.44;94.46
61119;BME280;51448;51.660;5.824;2023-01-25T12:43:04;103064.47;;;0.41;94.74
61119;BME280;51448;51.660;5.824;2023-01-25T12:45:44;103052.50;;;0.43;95.06
61119;BME280;51448;51.660;5.824;2023-01-25T12:48:17;103049.16;;;0.46;94.83
61119;BME280;51448;51.660;5.824;2023-01-25T12:50:54;103041.53;;;0.49;94.62
61119;BME280;51448;51.660;5.824;2023-01-25T12:53:31;103038.13;;;0.50;94.63
61119;BME280;51448;51.660;5.824;2023-01-25T12:56:05;103026.94;;;0.51;95.09
61119;BME280;51448;51.660;5.824;2023-01-25T13:10:16;103009.28;;;0.42;93.88
61119;BME280;51448;51.660;5.824;2023-01-25T13:13:20;103006.47;;;0.37;94.36
61119;BME280;51448;51.660;5.824;2023-01-25T13:15:52;103001.22;;;0.36;94.58
61119;BME280;51448;51.660;5.824;2023-01-25T13:20:52;102998.72;;;0.37;94.33
61119;BME280;51448;51.660;5.824;2023-01-25T13:23:32;103001.38;;;0.39;94.36
61119;BME280;51448;51.660;5.824;2023-01-25T13:28:48;102986.94;;;0.26;94.37
61119;BME280;51448;51.660;5.824;2023-01-25T13:31:42;102986.94;;;0.26;94.01
61119;BME280;51448;51.660;5.824;2023-01-25T13:39:49;102977.41;;;0.25;94.35
61119;BME280;51448;51.660;5.824;2023-01-25T13:42:27;102969.63;;;0.25;94.32
61119;BME280;51448;51.660;5.824;2023-01-25T13:44:58;102967.63;;;0.19;94.28
61119;BME280;51448;51.660;5.824;2023-01-25T13:47:35;102964.00;;;0.16;94.08
61119;BME280;51448;51.660;5.824;2023-01-25T13:50:17;102963.88;;;0.13;94.36
61119;BME280;51448;51.660;5.824;2023-01-25T13:52:58;102961.19;;;0.11;94.91
61119;BME280;51448;51.660;5.824;2023-01-25T13:55:39;102949.97;;;0.11;94.86
61119;BME280;51448;51.660;5.824;2023-01-25T13:58:10;102945.75;;;0.13;94.88
61119;BME280;51448;51.660;5.824;2023-01-25T14:00:56;102936.19;;;0.12;94.77
61119;BME280;51448;51.660;5.824;2023-01-25T14:03:32;102939.75;;;0.14;94.97
61119;BME280;51448;51.660;5.824;2023-01-25T14:06:02;102936.50;;;0.18;95.21
61119;BME280;51448;51.660;5.824;2023-01-25T14:08:30;102937.41;;;0.18;94.94
61119;BME280;51448;51.660;5.824;2023-01-25T14:10:58;102937.31;;;0.17;94.71
61119;BME280;51448;51.660;5.824;2023-01-25T14:13:26;102933.84;;;0.16;94.88
61119;BME280;51448;51.660;5.824;2023-01-25T14:15:58;102943.28;;;0.16;94.51
61119;BME280;51448;51.660;5.824;2023-01-25T14:18:35;102939.09;;;0.18;94.86
61119;BME280;51448;51.660;5.824;2023-01-25T14:21:19;102945.09;;;0.17;94.78
61119;BME280;51448;51.660;5.824;2023-01-25T14:23:47;102941.66;;;0.18;94.98
61119;BME280;51448;51.660;5.824;2023-01-25T14:26:24;102940.22;;;0.23;94.89
61119;BME280;51448;51.660;5.824;2023-01-25T14:28:56;102945.38;;;0.23;94.95
61119;BME280;51448;51.660;5.824;2023-01-25T14:31:33;102938.41;;;0.22;94.88
61119;BME280;51448;51.660;5.824;2023-01-25T14:34:02;102945.97;;;0.17;94.68
61119;BME280;51448;51.660;5.824;2023-01-25T14:36:32;102936.44;;;0.16;94.90
61119;BME280;51448;51.660;5.824;2023-01-25T14:39:01;102933.59;;;0.12;94.53
61119;BME280;51448;51.660;5.824;2023-01-25T14:41:38;102926.59;;;0.09;94.72
61119;BME280;51448;51.660;5.824;2023-01-25T14:44:25;102931.56;;;0.05;94.85